Time;durP1;ratioP1;P1;durP2;ratioP2;P2;SDS_P1;SDS_P2;PMS_P1;PMS_P2;Temp;Humidity;BMP_temperature;BMP_pressure;BME280_temperature;BME280_humidity;BME280_pressure;Samples;Min_cycle;Max_cycle;Signal;HPM_P1;HPM_P2
2022/12/12 11:44:00;;;;;;;;;16.33;13.00;;;;;;;;5103885;27;13418;-77
2022/12/12 11:46:27;;;;;;;;;32.67;28.00;;;;;;;;5088541;28;9557;-76
2022/12/12 11:48:52;;;;;;;;;27.67;23.67;;;;;;;;5106367;28;8845;-75
2022/12/12 11:51:32;;;;;;;;;49.67;41.00;;;;;;;;5104877;28;8828;-76
2022/12/12 11:53:58;;;;;;;;;27.33;21.00;;;;;;;;5103476;28;8827;-76
2022/12/12 11:56:26;;;;;;;;;24.00;19.33;;;;;;;;5104881;28;8811;-74
2022/12/12 11:58:54;;;;;;;;;24.67;19.67;;;;;;;;5121953;27;8817;-76
2022/12/12 12:01:36;;;;;;;;;34.00;26.00;;;;;;;;5124717;27;11534;-75
2022/12/12 12:04:10;;;;;;;;;17.33;17.33;;;;;;;;5106484;27;8824;-77
2022/12/12 12:06:41;;;;;;;;;14.00;14.00;;;;;;;;5105699;28;11508;-75
2022/12/12 12:09:15;;;;;;;;;16.33;16.00;;;;;;;;5104634;28;11599;-77
2022/12/12 12:11:41;;;;;;;;;16.67;15.33;;;;;;;;5105956;28;11592;-76
2022/12/12 12:14:17;;;;;;;;;19.00;19.00;;;;;;;;5105806;28;12211;-78
2022/12/12 12:16:45;;;;;;;;;21.67;17.33;;;;;;;;5106224;28;8780;-77
2022/12/12 12:19:33;;;;;;;;;18.67;18.00;;;;;;;;5123045;27;11597;-76
2022/12/12 12:22:01;;;;;;;;;16.25;11.75;;;;;;;;5125207;27;11515;-77
2022/12/12 12:24:31;;;;;;;;;15.75;13.75;;;;;;;;5126646;27;11556;-76
2022/12/12 12:27:03;;;;;;;;;15.33;11.67;;;;;;;;5124209;27;11473;-76
2022/12/12 12:29:34;;;;;;;;;12.75;8.00;;;;;;;;5085253;28;11563;-76
2022/12/12 12:32:22;;;;;;;;;11.00;10.50;;;;;;;;5086807;27;11633;-76
2022/12/12 12:34:51;;;;;;;;;12.00;10.75;;;;;;;;5099860;28;11572;-82
2022/12/12 12:37:19;;;;;;;;;8.25;8.25;;;;;;;;5102975;27;11558;-82
2022/12/12 12:39:47;;;;;;;;;12.00;10.50;;;;;;;;5105306;28;11542;-73
2022/12/12 12:42:26;;;;;;;;;10.00;10.00;;;;;;;;5104714;28;11541;-72
2022/12/12 12:44:57;;;;;;;;;13.00;10.00;;;;;;;;5105164;28;11468;-72
2022/12/12 12:47:22;;;;;;;;;11.00;11.00;;;;;;;;5105688;27;12342;-72
2022/12/12 12:49:58;;;;;;;;;10.75;10.25;;;;;;;;5124167;27;11518;-72
2022/12/12 12:52:39;;;;;;;;;17.00;13.00;;;;;;;;5124641;27;8840;-72
2022/12/12 12:55:12;;;;;;;;;11.75;10.00;;;;;;;;5111777;28;11488;-72
2022/12/12 12:57:39;;;;;;;;;11.75;10.25;;;;;;;;5102711;28;11736;-83
2022/12/12 13:00:09;;;;;;;;;12.00;10.25;;;;;;;;5091360;28;11725;-74
2022/12/12 13:02:46;;;;;;;;;11.00;8.00;;;;;;;;5084470;28;11504;-71
2022/12/12 13:05:20;;;;;;;;;12.50;10.00;;;;;;;;5090805;28;11470;-72
2022/12/12 13:07:52;;;;;;;;;12.00;12.00;;;;;;;;5089717;28;11505;-71
2022/12/12 13:10:20;;;;;;;;;16.00;11.00;;;;;;;;5091090;28;11481;-72
2022/12/12 13:12:54;;;;;;;;;17.00;11.00;;;;;;;;5090726;28;11537;-72
2022/12/12 13:15:24;;;;;;;;;10.25;10.25;;;;;;;;5091071;28;11590;-72
2022/12/12 13:17:52;;;;;;;;;16.67;13.33;;;;;;;;5089767;28;11639;-72
2022/12/12 13:20:19;;;;;;;;;14.00;12.75;;;;;;;;5090575;28;11506;-72
2022/12/12 13:22:50;;;;;;;;;18.00;13.00;;;;;;;;5090523;28;11507;-72
2022/12/12 13:25:23;;;;;;;;;16.50;13.50;;;;;;;;5091027;28;12371;-72
2022/12/12 13:27:51;;;;;;;;;19.33;19.00;;;;;;;;5088021;28;11565;-76
2022/12/12 13:30:24;;;;;;;;;19.00;17.00;;;;;;;;5090859;28;11485;-76
2022/12/12 13:33:03;;;;;;;;;17.67;16.00;;;;;;;;5090635;28;11568;-73
2022/12/12 13:35:34;;;;;;;;;20.00;19.00;;;;;;;;5088903;28;11561;-75
2022/12/12 13:38:00;;;;;;;;;18.33;14.00;;;;;;;;5090951;28;8792;-77
2022/12/12 13:40:38;;;;;;;;;22.33;16.33;;;;;;;;5090621;28;12263;-77
2022/12/12 13:43:04;;;;;;;;;24.33;22.00;;;;;;;;5089466;28;8881;-77
2022/12/12 13:45:41;;;;;;;;;16.33;16.00;;;;;;;;5090892;28;8788;-77
2022/12/12 13:48:06;;;;;;;;;23.00;16.33;;;;;;;;5090684;28;11509;-76
2022/12/12 13:50:32;;;;;;;;;24.67;22.33;;;;;;;;5090099;28;11584;-76
2022/12/12 13:53:06;;;;;;;;;17.67;17.00;;;;;;;;5090466;28;8816;-76
2022/12/12 13:55:32;;;;;;;;;24.33;23.00;;;;;;;;5090506;28;8812;-76
2022/12/12 13:57:58;;;;;;;;;22.00;18.33;;;;;;;;5090513;28;8873;-77
2022/12/12 14:00:25;;;;;;;;;20.00;17.67;;;;;;;;5090556;28;8807;-76
2022/12/12 14:02:52;;;;;;;;;17.67;17.00;;;;;;;;5090314;28;8800;-76
2022/12/12 14:05:28;;;;;;;;;23.33;17.67;;;;;;;;5088871;28;11552;-76
2022/12/12 14:08:05;;;;;;;;;22.33;21.33;;;;;;;;5090169;28;12210;-75
2022/12/12 14:10:33;;;;;;;;;27.33;23.00;;;;;;;;5090055;28;11680;-76
2022/12/12 14:13:34;;;;;;;;;30.33;25.00;;;;;;;;5090077;28;8844;-75
2022/12/12 14:16:01;;;;;;;;;28.67;25.33;;;;;;;;5066284;28;8848;-75
2022/12/12 14:18:30;;;;;;;;;30.00;26.00;;;;;;;;5067307;28;8813;-79
2022/12/12 14:21:04;;;;;;;;;32.67;28.67;;;;;;;;5070554;28;8789;-79
2022/12/12 14:23:31;;;;;;;;;32.33;29.33;;;;;;;;5081157;22;9036;-72
2022/12/12 14:25:58;;;;;;;;;32.67;26.00;;;;;;;;5050824;28;8809;-71
2022/12/12 14:28:29;;;;;;;;;35.00;31.00;;;;;;;;5050855;28;8817;-72
2022/12/12 14:31:17;;;;;;;;;27.00;26.33;;;;;;;;5050756;28;8815;-73
2022/12/12 14:33:55;;;;;;;;;35.00;28.00;;;;;;;;5045416;28;8915;-78
2022/12/12 14:36:32;;;;;;;;;32.67;28.00;;;;;;;;5065382;28;8891;-77
2022/12/12 14:39:13;;;;;;;;;35.00;31.67;;;;;;;;5071164;28;8826;-79
2022/12/12 14:41:39;;;;;;;;;44.33;36.00;;;;;;;;5070853;28;8787;-74
2022/12/12 14:44:11;;;;;;;;;40.67;30.00;;;;;;;;5063420;28;8821;-74
2022/12/12 14:46:42;;;;;;;;;39.33;31.67;;;;;;;;5039790;28;8900;-74
2022/12/12 14:49:12;;;;;;;;;33.33;31.67;;;;;;;;5047505;28;8896;-75
2022/12/12 14:51:39;;;;;;;;;39.67;30.33;;;;;;;;5049512;28;8805;-74
2022/12/12 14:54:12;;;;;;;;;45.33;38.33;;;;;;;;5039964;28;9534;-74
2022/12/12 14:56:39;;;;;;;;;39.00;34.33;;;;;;;;5050117;28;8749;-74
2022/12/12 14:59:09;;;;;;;;;40.00;33.67;;;;;;;;5047496;28;8809;-74
2022/12/12 15:01:34;;;;;;;;;37.67;37.00;;;;;;;;5050026;28;8900;-75
2022/12/12 15:04:04;;;;;;;;;42.00;39.00;;;;;;;;5038622;28;8931;-74
2022/12/12 15:06:34;;;;;;;;;42.00;38.33;;;;;;;;5049797;28;8822;-73
2022/12/12 15:09:18;;;;;;;;;38.33;36.00;;;;;;;;5039033;28;8820;-74
2022/12/12 15:11:44;;;;;;;;;41.33;39.67;;;;;;;;5047022;28;8781;-74
2022/12/12 15:14:26;;;;;;;;;45.00;40.00;;;;;;;;5049717;28;8914;-79
2022/12/12 15:16:54;;;;;;;;;36.67;35.33;;;;;;;;5036815;28;8837;-80
2022/12/12 15:19:25;;;;;;;;;45.67;38.33;;;;;;;;5040747;28;8844;-80
2022/12/12 15:21:50;;;;;;;;;39.33;36.33;;;;;;;;5037181;28;8850;-77
2022/12/12 15:24:26;;;;;;;;;40.67;34.00;;;;;;;;5029807;28;8836;-81
2022/12/12 15:26:53;;;;;;;;;35.33;32.33;;;;;;;;5045540;28;8825;-78
2022/12/12 15:29:21;;;;;;;;;36.67;36.67;;;;;;;;5050440;28;9486;-77
2022/12/12 15:31:48;;;;;;;;;53.33;42.00;;;;;;;;5050327;28;8802;-75
2022/12/12 15:34:29;;;;;;;;;40.00;39.33;;;;;;;;5048844;28;8817;-77
2022/12/12 15:36:54;;;;;;;;;40.67;32.33;;;;;;;;5069175;28;8787;-76
2022/12/12 15:39:20;;;;;;;;;43.00;36.00;;;;;;;;5070184;28;9547;-77
2022/12/12 15:41:46;;;;;;;;;41.00;38.33;;;;;;;;5042219;28;8839;-77
2022/12/12 15:44:18;;;;;;;;;40.00;36.33;;;;;;;;5030323;28;8807;-78
2022/12/12 15:47:03;;;;;;;;;45.67;39.00;;;;;;;;5030547;28;8842;-78
2022/12/12 15:49:37;;;;;;;;;46.33;36.67;;;;;;;;5029950;28;8808;-78
2022/12/12 15:52:18;;;;;;;;;38.33;33.00;;;;;;;;5030337;28;8823;-76
2022/12/12 15:54:48;;;;;;;;;48.67;37.33;;;;;;;;5028672;28;9546;-74
2022/12/12 15:57:24;;;;;;;;;40.00;40.00;;;;;;;;5029912;28;8796;-71
2022/12/12 15:59:58;;;;;;;;;41.33;40.00;;;;;;;;5029818;28;8850;-71
2022/12/12 16:02:25;;;;;;;;;45.00;39.67;;;;;;;;5029736;28;8812;-72
2022/12/12 16:05:13;;;;;;;;;34.67;34.00;;;;;;;;5033487;28;8791;-73
2022/12/12 16:07:39;;;;;;;;;39.67;33.00;;;;;;;;5063915;28;8904;-71
2022/12/12 16:10:10;;;;;;;;;46.33;38.67;;;;;;;;5069680;28;8845;-76
2022/12/12 16:12:54;;;;;;;;;38.67;33.67;;;;;;;;5070061;28;8818;-73
2022/12/12 16:15:26;;;;;;;;;48.33;40.33;;;;;;;;5069839;28;8929;-76
2022/12/12 16:17:59;;;;;;;;;31.67;27.00;;;;;;;;5069806;28;9631;-75
2022/12/12 16:20:24;;;;;;;;;41.67;38.00;;;;;;;;5055162;28;8916;-73
2022/12/12 16:22:50;;;;;;;;;39.67;36.33;;;;;;;;5049481;28;8809;-74
2022/12/12 16:25:22;;;;;;;;;45.00;39.67;;;;;;;;5049436;28;8817;-73
2022/12/12 16:28:08;;;;;;;;;39.00;35.33;;;;;;;;5046618;28;8809;-73
2022/12/12 16:30:34;;;;;;;;;39.67;35.33;;;;;;;;5050700;28;8824;-74
2022/12/12 16:33:29;;;;;;;;;39.67;35.67;;;;;;;;5050115;28;8853;-74
2022/12/12 16:35:54;;;;;;;;;34.67;34.00;;;;;;;;5022517;28;8828;-74
2022/12/12 16:38:20;;;;;;;;;46.33;42.67;;;;;;;;5050936;28;8812;-74
2022/12/12 16:40:46;;;;;;;;;57.33;48.00;;;;;;;;5052387;28;8802;-72
2022/12/12 16:43:12;;;;;;;;;53.00;46.00;;;;;;;;5043441;28;8813;-74
2022/12/12 16:45:38;;;;;;;;;57.75;48.00;;;;;;;;5041830;28;8799;-74
2022/12/12 16:48:17;;;;;;;;;33.00;30.33;;;;;;;;5053336;28;8915;-76
2022/12/12 16:50:43;;;;;;;;;45.33;37.67;;;;;;;;5052041;28;8797;-77
2022/12/12 16:53:08;;;;;;;;;45.00;41.33;;;;;;;;5043546;28;8923;-78
2022/12/12 16:55:35;;;;;;;;;42.00;39.33;;;;;;;;5041040;28;8792;-78
2022/12/12 16:58:00;;;;;;;;;40.00;39.00;;;;;;;;5041285;28;8824;-78
2022/12/12 17:00:25;;;;;;;;;38.67;31.00;;;;;;;;5049454;28;8786;-77
2022/12/12 17:02:51;;;;;;;;;35.33;33.00;;;;;;;;5052202;28;8826;-78
2022/12/12 17:05:17;;;;;;;;;51.67;41.33;;;;;;;;5046769;28;8794;-76
2022/12/12 17:07:43;;;;;;;;;47.00;39.33;;;;;;;;5073065;28;8875;-80
2022/12/12 17:10:09;;;;;;;;;50.67;42.33;;;;;;;;5054354;28;8928;-79
2022/12/12 17:12:36;;;;;;;;;45.33;40.00;;;;;;;;5052462;28;8841;-84
2022/12/12 17:15:01;;;;;;;;;33.67;28.00;;;;;;;;5037784;28;8820;-87
2022/12/12 17:17:26;;;;;;;;;40.33;36.67;;;;;;;;5034421;28;8835;-85
2022/12/12 17:19:52;;;;;;;;;48.67;42.67;;;;;;;;5035498;28;8804;-83
2022/12/12 17:22:17;;;;;;;;;40.00;39.00;;;;;;;;5048720;28;8948;-81
2022/12/12 17:24:42;;;;;;;;;43.33;40.00;;;;;;;;5052819;28;8831;-82
2022/12/12 17:27:08;;;;;;;;;48.00;40.00;;;;;;;;5052217;28;9650;-79
2022/12/12 17:29:33;;;;;;;;;43.33;40.00;;;;;;;;5051912;28;8825;-81
2022/12/12 17:31:58;;;;;;;;;33.33;31.00;;;;;;;;5050986;28;8813;-75
2022/12/12 17:34:23;;;;;;;;;45.33;39.33;;;;;;;;5039577;28;8819;-75
2022/12/12 17:36:49;;;;;;;;;39.33;38.67;;;;;;;;5042061;28;8833;-75
2022/12/12 17:39:14;;;;;;;;;45.67;42.33;;;;;;;;5051540;28;8857;-78
2022/12/12 17:41:39;;;;;;;;;41.33;38.33;;;;;;;;5051635;28;8841;-78
2022/12/12 17:44:04;;;;;;;;;46.00;42.33;;;;;;;;5048337;28;8863;-75
2022/12/12 17:46:30;;;;;;;;;39.67;38.33;;;;;;;;5051527;28;8801;-76
2022/12/12 17:48:57;;;;;;;;;40.67;39.33;;;;;;;;5040266;28;8812;-77
2022/12/12 17:51:23;;;;;;;;;49.67;40.67;;;;;;;;5051578;28;8830;-75
2022/12/12 17:53:49;;;;;;;;;47.33;40.00;;;;;;;;5046577;28;8856;-76
2022/12/12 17:56:19;;;;;;;;;48.67;44.33;;;;;;;;5051825;28;8813;-75
2022/12/12 17:58:44;;;;;;;;;42.33;37.00;;;;;;;;5037720;28;8804;-74
2022/12/12 18:01:14;;;;;;;;;42.00;37.00;;;;;;;;5051672;28;8947;-75
2022/12/12 18:03:40;;;;;;;;;50.33;43.00;;;;;;;;5046672;28;8817;-76
2022/12/12 18:06:05;;;;;;;;;50.00;44.33;;;;;;;;5050347;28;8832;-75
2022/12/12 18:08:30;;;;;;;;;55.33;44.00;;;;;;;;5045147;28;9682;-74
2022/12/12 18:10:56;;;;;;;;;41.33;39.67;;;;;;;;5036104;28;8816;-77
2022/12/12 18:13:21;;;;;;;;;52.33;45.00;;;;;;;;5035735;28;8849;-82
2022/12/12 18:15:52;;;;;;;;;46.33;43.00;;;;;;;;5048316;28;8927;-77
2022/12/12 18:18:17;;;;;;;;;55.00;45.33;;;;;;;;5049710;28;8770;-78
2022/12/12 18:20:43;;;;;;;;;54.67;48.00;;;;;;;;5048045;28;8866;-78
2022/12/12 18:23:08;;;;;;;;;53.33;46.00;;;;;;;;5048277;28;8808;-79
2022/12/12 18:25:34;;;;;;;;;51.00;44.50;;;;;;;;5042969;28;8847;-80
2022/12/12 18:27:59;;;;;;;;;1.00;0.00;;;;;;;;5030237;28;9558;-76
2022/12/12 18:30:25;;;;;;;;;53.67;47.00;;;;;;;;5029836;28;8946;-74
2022/12/12 18:32:50;;;;;;;;;53.75;48.25;;;;;;;;5029614;28;8869;-79
2022/12/12 18:35:15;;;;;;;;;54.00;45.33;;;;;;;;5054774;28;8811;-77
2022/12/12 18:37:40;;;;;;;;;53.75;47.25;;;;;;;;5069992;28;8833;-78
2022/12/12 18:40:06;;;;;;;;;59.25;48.75;;;;;;;;5070170;28;8807;-76
2022/12/12 18:42:31;;;;;;;;;18.50;16.50;;;;;;;;5071309;28;8802;-76
2022/12/12 18:44:57;;;;;;;;;43.00;41.00;;;;;;;;5052019;28;8805;-76
2022/12/12 18:47:22;;;;;;;;;63.00;51.00;;;;;;;;5049925;28;8801;-76
2022/12/12 18:49:47;;;;;;;;;52.00;45.00;;;;;;;;5050997;28;8793;-76
2022/12/12 18:52:12;;;;;;;;;52.50;46.50;;;;;;;;5049058;28;8844;-76
2022/12/12 18:54:38;;;;;;;;;44.67;34.67;;;;;;;;5049033;28;8959;-78
2022/12/12 18:57:03;;;;;;;;;56.33;45.00;;;;;;;;5052166;28;8786;-76
2022/12/12 18:59:29;;;;;;;;;47.00;41.33;;;;;;;;5054958;28;8855;-76
2022/12/12 19:01:54;;;;;;;;;47.33;43.67;;;;;;;;5052447;28;8789;-77
2022/12/12 19:04:19;;;;;;;;;51.67;45.00;;;;;;;;5055290;28;8813;-77
2022/12/12 19:06:44;;;;;;;;;57.25;46.75;;;;;;;;5084842;28;8910;-82
2022/12/12 19:09:15;;;;;;;;;53.67;45.00;;;;;;;;5083507;28;8795;-78
2022/12/12 19:11:40;;;;;;;;;51.00;45.50;;;;;;;;5091842;28;8833;-77
2022/12/12 19:14:06;;;;;;;;;49.00;47.33;;;;;;;;5079017;28;8841;-79
2022/12/12 19:16:32;;;;;;;;;53.33;44.33;;;;;;;;5054324;28;8835;-81
2022/12/12 19:19:00;;;;;;;;;57.25;48.00;;;;;;;;5046927;28;8813;-79
2022/12/12 19:21:28;;;;;;;;;40.00;33.33;;;;;;;;5042409;28;9413;-80
2022/12/12 19:23:54;;;;;;;;;55.50;48.00;;;;;;;;5040480;28;9623;-81
2022/12/12 19:26:24;;;;;;;;;54.67;42.33;;;;;;;;5040814;28;8804;-78
2022/12/12 19:28:50;;;;;;;;;56.67;46.67;;;;;;;;5040712;28;8879;-78
2022/12/12 19:31:16;;;;;;;;;53.00;45.00;;;;;;;;5046471;28;8830;-78
2022/12/12 19:33:42;;;;;;;;;58.67;47.33;;;;;;;;5045749;28;8959;-78
2022/12/12 19:36:12;;;;;;;;;55.33;47.33;;;;;;;;5044470;28;8785;-76
2022/12/12 19:38:37;;;;;;;;;55.33;48.33;;;;;;;;5041540;28;8782;-74
2022/12/12 19:41:03;;;;;;;;;49.67;45.00;;;;;;;;5048766;28;8773;-74
2022/12/12 19:43:29;;;;;;;;;60.33;46.00;;;;;;;;5047147;28;8810;-75
2022/12/12 19:46:14;;;;;;;;;52.33;45.00;;;;;;;;5048841;28;8827;-77
2022/12/12 19:48:39;;;;;;;;;54.67;42.33;;;;;;;;5048214;28;8978;-75
2022/12/12 19:51:08;;;;;;;;;55.67;48.00;;;;;;;;5048693;28;8825;-75
2022/12/12 19:53:42;;;;;;;;;51.00;45.67;;;;;;;;5046407;28;8844;-75
2022/12/12 19:56:10;;;;;;;;;51.00;43.67;;;;;;;;5046639;28;8793;-75
2022/12/12 19:58:35;;;;;;;;;58.00;45.75;;;;;;;;5039041;28;8852;-75
2022/12/12 20:01:04;;;;;;;;;40.67;40.67;;;;;;;;5048555;28;8805;-76
2022/12/12 20:03:30;;;;;;;;;42.33;37.00;;;;;;;;5047246;28;8829;-79
2022/12/12 20:06:00;;;;;;;;;38.67;34.00;;;;;;;;5052493;28;8848;-76
2022/12/12 20:08:26;;;;;;;;;43.67;37.33;;;;;;;;5050102;28;10060;-77
2022/12/12 20:10:51;;;;;;;;;44.67;43.33;;;;;;;;5053718;28;8790;-77
2022/12/12 20:13:16;;;;;;;;;39.33;33.67;;;;;;;;5053964;28;8832;-76
2022/12/12 20:15:41;;;;;;;;;48.00;45.00;;;;;;;;5086133;28;8844;-76
2022/12/12 20:18:09;;;;;;;;;47.33;42.67;;;;;;;;5053654;28;8894;-77
2022/12/12 20:20:34;;;;;;;;;44.67;37.00;;;;;;;;5053653;28;8781;-79
2022/12/12 20:22:59;;;;;;;;;41.67;40.00;;;;;;;;5053838;28;8948;-77
2022/12/12 20:25:24;;;;;;;;;52.25;45.00;;;;;;;;5053897;28;8829;-78
2022/12/12 20:27:50;;;;;;;;;42.33;39.33;;;;;;;;5053756;28;8916;-77
2022/12/12 20:30:15;;;;;;;;;46.00;39.33;;;;;;;;5053624;28;8820;-78
2022/12/12 20:32:40;;;;;;;;;43.67;40.67;;;;;;;;5049540;28;8821;-77
2022/12/12 20:35:06;;;;;;;;;46.00;42.33;;;;;;;;5049761;28;8807;-74
2022/12/12 20:37:31;;;;;;;;;54.33;42.00;;;;;;;;5053050;28;8828;-76
2022/12/12 20:39:57;;;;;;;;;41.33;39.67;;;;;;;;5042832;28;8792;-77
2022/12/12 20:42:22;;;;;;;;;43.00;40.00;;;;;;;;5052998;28;8797;-77
2022/12/12 20:44:47;;;;;;;;;51.50;46.25;;;;;;;;5052908;28;8828;-77
2022/12/12 20:47:15;;;;;;;;;57.75;49.00;;;;;;;;5042236;28;8893;-74
2022/12/12 20:49:42;;;;;;;;;50.33;42.33;;;;;;;;5052962;28;8876;-74
2022/12/12 20:52:07;;;;;;;;;40.00;33.67;;;;;;;;5052396;28;8777;-76
2022/12/12 20:54:33;;;;;;;;;43.00;39.00;;;;;;;;5041010;28;8805;-76
2022/12/12 20:56:58;;;;;;;;;40.67;34.67;;;;;;;;5052116;28;8817;-75
2022/12/12 20:59:24;;;;;;;;;52.00;42.33;;;;;;;;5051770;28;8848;-75
2022/12/12 21:01:50;;;;;;;;;42.33;40.33;;;;;;;;5052724;28;8841;-75
2022/12/12 21:04:15;;;;;;;;;39.00;33.33;;;;;;;;5053005;28;8814;-75
2022/12/12 21:06:43;;;;;;;;;34.00;34.00;;;;;;;;5069804;28;8795;-75
2022/12/12 21:09:09;;;;;;;;;45.67;37.67;;;;;;;;5073136;28;9655;-75
2022/12/12 21:11:35;;;;;;;;;46.67;42.67;;;;;;;;5056910;28;8825;-74
2022/12/12 21:14:00;;;;;;;;;48.33;45.00;;;;;;;;5051275;28;8867;-74
2022/12/12 21:16:27;;;;;;;;;49.33;45.00;;;;;;;;5050439;28;8832;-76
2022/12/12 21:18:54;;;;;;;;;53.67;45.33;;;;;;;;5051389;28;8857;-75
2022/12/12 21:21:19;;;;;;;;;50.67;44.33;;;;;;;;5051333;28;8878;-74
2022/12/12 21:23:45;;;;;;;;;58.00;45.00;;;;;;;;5052092;28;9550;-75
2022/12/12 21:26:11;;;;;;;;;57.67;45.33;;;;;;;;5050769;28;8833;-75
2022/12/12 21:28:37;;;;;;;;;44.67;39.67;;;;;;;;5050680;28;9892;-75
2022/12/12 21:31:06;;;;;;;;;48.33;42.33;;;;;;;;5051725;28;8793;-76
2022/12/12 21:33:34;;;;;;;;;53.00;48.00;;;;;;;;5051945;28;8852;-75
2022/12/12 21:36:03;;;;;;;;;49.33;45.33;;;;;;;;5063636;28;8838;-74
2022/12/12 21:38:29;;;;;;;;;51.33;46.67;;;;;;;;5072455;28;8767;-74
2022/12/12 21:40:54;;;;;;;;;17.00;11.00;;;;;;;;5072602;28;8791;-75
2022/12/12 21:43:19;;;;;;;;;62.25;49.25;;;;;;;;5072413;28;8849;-76
2022/12/12 21:45:44;;;;;;;;;48.50;45.00;;;;;;;;5072313;28;8799;-75
2022/12/12 21:48:10;;;;;;;;;62.25;44.75;;;;;;;;5072203;28;8799;-76
2022/12/12 21:50:36;;;;;;;;;60.75;49.25;;;;;;;;5071975;28;8759;-74
2022/12/12 21:55:46;;;;;;;;;53.25;47.50;;;;;;;;5071285;28;8811;-77
2022/12/12 21:58:11;;;;;;;;;51.00;45.00;;;;;;;;5070048;28;8802;-75
2022/12/12 22:00:38;;;;;;;;;42.00;42.00;;;;;;;;5057150;28;8813;-76
2022/12/12 22:03:04;;;;;;;;;48.00;44.00;;;;;;;;5050087;28;8828;-75
2022/12/12 22:05:29;;;;;;;;;61.50;48.00;;;;;;;;5048838;28;8821;-75
2022/12/12 22:07:55;;;;;;;;;60.25;50.00;;;;;;;;5050234;28;8805;-75
2022/12/12 22:10:20;;;;;;;;;69.50;52.00;;;;;;;;5050270;28;8789;-77
2022/12/12 22:12:47;;;;;;;;;55.25;44.75;;;;;;;;5049692;28;8848;-76
2022/12/12 22:15:12;;;;;;;;;56.25;49.00;;;;;;;;5051898;28;8916;-75
2022/12/12 22:17:37;;;;;;;;;54.50;45.75;;;;;;;;5050446;28;8956;-77
2022/12/12 22:20:03;;;;;;;;;55.25;47.50;;;;;;;;5051868;28;8793;-76
2022/12/12 22:22:28;;;;;;;;;51.25;42.50;;;;;;;;5051906;28;8805;-76
2022/12/12 22:24:54;;;;;;;;;55.75;47.25;;;;;;;;5052143;28;8890;-77
2022/12/12 22:27:20;;;;;;;;;53.50;46.50;;;;;;;;5049678;28;8837;-78
2022/12/12 22:29:46;;;;;;;;;53.00;43.50;;;;;;;;5050329;28;8821;-76
2022/12/12 22:32:11;;;;;;;;;56.75;47.00;;;;;;;;5050336;28;8833;-76
2022/12/12 22:34:36;;;;;;;;;50.00;45.50;;;;;;;;5051415;28;8931;-75
2022/12/12 22:37:01;;;;;;;;;53.00;47.25;;;;;;;;5051145;28;8815;-75
2022/12/12 22:39:27;;;;;;;;;56.50;47.00;;;;;;;;5050993;28;8890;-76
2022/12/12 22:41:53;;;;;;;;;63.75;54.50;;;;;;;;5051082;28;9562;-74
2022/12/12 22:44:19;;;;;;;;;61.50;49.50;;;;;;;;5050988;28;9554;-75
2022/12/12 22:46:45;;;;;;;;;64.00;52.00;;;;;;;;5051640;28;9608;-76
2022/12/12 22:49:11;;;;;;;;;65.50;52.00;;;;;;;;5050965;28;8809;-75
2022/12/12 22:51:37;;;;;;;;;63.00;51.25;;;;;;;;5051122;28;8789;-76
2022/12/12 22:54:04;;;;;;;;;56.50;47.50;;;;;;;;5050933;28;8907;-76
2022/12/12 22:56:30;;;;;;;;;65.75;51.75;;;;;;;;5050960;28;8785;-76
2022/12/12 22:58:56;;;;;;;;;69.25;55.00;;;;;;;;5050718;28;8773;-76
2022/12/12 23:01:21;;;;;;;;;64.50;50.75;;;;;;;;5050700;28;8816;-75
2022/12/12 23:03:47;;;;;;;;;60.75;50.50;;;;;;;;5050900;28;8915;-75
2022/12/12 23:06:14;;;;;;;;;61.50;51.00;;;;;;;;5050808;28;8911;-76
2022/12/12 23:08:39;;;;;;;;;39.67;35.33;;;;;;;;5050782;28;8824;-76
2022/12/12 23:11:09;;;;;;;;;32.67;29.33;;;;;;;;5050662;28;8797;-75
2022/12/12 23:13:35;;;;;;;;;39.00;32.67;;;;;;;;5050554;28;8825;-76
2022/12/12 23:16:07;;;;;;;;;49.75;42.25;;;;;;;;5050722;28;8816;-76
2022/12/12 23:18:34;;;;;;;;;67.00;56.25;;;;;;;;5050752;28;8855;-75
2022/12/12 23:20:59;;;;;;;;;69.25;54.50;;;;;;;;5051133;28;8778;-75
2022/12/12 23:23:24;;;;;;;;;70.50;55.25;;;;;;;;5056520;28;8821;-75
2022/12/12 23:25:50;;;;;;;;;62.50;53.50;;;;;;;;5062005;28;8825;-75
2022/12/12 23:28:15;;;;;;;;;67.25;53.00;;;;;;;;5060494;28;8825;-76
2022/12/12 23:30:40;;;;;;;;;58.50;49.75;;;;;;;;5059037;28;8789;-76
2022/12/12 23:33:06;;;;;;;;;64.25;51.00;;;;;;;;5059158;28;8914;-75
2022/12/12 23:35:31;;;;;;;;;65.75;53.50;;;;;;;;5057504;28;8801;-76
2022/12/12 23:37:56;;;;;;;;;48.25;41.25;;;;;;;;5051983;28;8801;-76
2022/12/12 23:40:22;;;;;;;;;48.00;40.75;;;;;;;;5051234;28;8797;-75
2022/12/12 23:42:47;;;;;;;;;54.75;46.50;;;;;;;;5050838;28;8833;-76
2022/12/12 23:45:12;;;;;;;;;61.50;51.50;;;;;;;;5049900;28;8829;-76
2022/12/12 23:47:37;;;;;;;;;59.00;50.25;;;;;;;;5049406;28;8817;-75
2022/12/12 23:50:03;;;;;;;;;59.75;51.25;;;;;;;;5050672;28;9516;-74
2022/12/12 23:52:28;;;;;;;;;66.25;51.25;;;;;;;;5050627;28;8837;-76
2022/12/12 23:54:53;;;;;;;;;61.25;48.25;;;;;;;;5050923;28;8793;-75
2022/12/12 23:57:19;;;;;;;;;51.00;46.50;;;;;;;;5050648;28;9683;-75
2022/12/12 23:59:44;;;;;;;;;60.75;48.50;;;;;;;;5050235;28;8824;-77
